CCA9889 ZUUU-ZUXC
Flight info
| Callsign | CCA9889 |
|---|---|
| Flight time | 0h 47m |
| Altitude | 36000 |
| Route | ZUUU LUVE9X LUVEN ZUXC |
| Aircraft | A320/M-SDE1GH/LB1 |
Departure
| Time | 2026-04-27 06:25 |
|---|---|
| Airport | Chengdu Shuangliu International Airport (ZUUU) |
Arrival
| Time | 2026-04-27 07:13 |
|---|---|
| Airport | Xichang Qingshan Airport (ZUXC) |
| Time | Latitude | Longitude | Altitude | Speed | Heading |
|---|---|---|---|---|---|
| 2026-04-27 06:00 | 30.56651 | 103.95600 | 1647 ft | 0 kts | 112° |
| 2026-04-27 06:02 | 30.56657 | 103.95583 | 1647 ft | 6 kts | 112° |
| 2026-04-27 06:03 | 30.56672 | 103.95544 | 1647 ft | 3 kts | 120° |
| 2026-04-27 06:03 | 30.56679 | 103.95532 | 1647 ft | 2 kts | 152° |
| 2026-04-27 06:03 | 30.56691 | 103.95531 | 1647 ft | 3 kts | 202° |
| 2026-04-27 06:03 | 30.56686 | 103.95529 | 1647 ft | 4 kts | 204° |
| 2026-04-27 06:04 | 30.56664 | 103.95517 | 1647 ft | 2 kts | 204° |
| 2026-04-27 06:04 | 30.56654 | 103.95511 | 1647 ft | 2 kts | 204° |
| 2026-04-27 06:04 | 30.56651 | 103.95510 | 1648 ft | 0 kts | 204° |
| 2026-04-27 06:06 | 30.56651 | 103.95600 | 1647 ft | 0 kts | 112° |
| 2026-04-27 06:11 | 30.56651 | 103.95598 | 1647 ft | 3 kts | 113° |
| 2026-04-27 06:11 | 30.56661 | 103.95571 | 1647 ft | 4 kts | 112° |
| 2026-04-27 06:11 | 30.56673 | 103.95538 | 1647 ft | 5 kts | 112° |
| 2026-04-27 06:11 | 30.56688 | 103.95497 | 1647 ft | 3 kts | 113° |
| 2026-04-27 06:12 | 30.56682 | 103.95508 | 1647 ft | 1 kts | 129° |
| 2026-04-27 06:12 | 30.56673 | 103.95513 | 1647 ft | 1 kts | 165° |
| 2026-04-27 06:12 | 30.56662 | 103.95512 | 1647 ft | 1 kts | 186° |
| 2026-04-27 06:12 | 30.56652 | 103.95509 | 1647 ft | 1 kts | 195° |
| 2026-04-27 06:13 | 30.56644 | 103.95506 | 1648 ft | 0 kts | 199° |
| 2026-04-27 06:14 | 30.56643 | 103.95506 | 1648 ft | 1 kts | 199° |
| 2026-04-27 06:14 | 30.56610 | 103.95489 | 1648 ft | 10 kts | 202° |
| 2026-04-27 06:14 | 30.56537 | 103.95453 | 1648 ft | 12 kts | 202° |
| 2026-04-27 06:15 | 30.56458 | 103.95416 | 1648 ft | 13 kts | 202° |
| 2026-04-27 06:15 | 30.56375 | 103.95377 | 1648 ft | 13 kts | 201° |
| 2026-04-27 06:15 | 30.56289 | 103.95336 | 1648 ft | 14 kts | 202° |
| 2026-04-27 06:15 | 30.56201 | 103.95295 | 1648 ft | 14 kts | 201° |
| 2026-04-27 06:16 | 30.56109 | 103.95256 | 1648 ft | 14 kts | 200° |
| 2026-04-27 06:16 | 30.56015 | 103.95217 | 1648 ft | 15 kts | 200° |
| 2026-04-27 06:16 | 30.55919 | 103.95175 | 1648 ft | 15 kts | 201° |
| 2026-04-27 06:16 | 30.55815 | 103.95127 | 1648 ft | 17 kts | 202° |
| 2026-04-27 06:17 | 30.55704 | 103.95075 | 1642 ft | 18 kts | 201° |
| 2026-04-27 06:17 | 30.55619 | 103.95036 | 1647 ft | 12 kts | 202° |
| 2026-04-27 06:17 | 30.55532 | 103.94996 | 1648 ft | 15 kts | 201° |
| 2026-04-27 06:17 | 30.55427 | 103.94948 | 1648 ft | 18 kts | 201° |
| 2026-04-27 06:18 | 30.55298 | 103.94889 | 1647 ft | 22 kts | 201° |
| 2026-04-27 06:18 | 30.55145 | 103.94818 | 1647 ft | 25 kts | 202° |
| 2026-04-27 06:18 | 30.54976 | 103.94737 | 1647 ft | 27 kts | 202° |
| 2026-04-27 06:18 | 30.54803 | 103.94655 | 1648 ft | 27 kts | 202° |
| 2026-04-27 06:19 | 30.54628 | 103.94574 | 1648 ft | 27 kts | 202° |
| 2026-04-27 06:19 | 30.54450 | 103.94491 | 1648 ft | 28 kts | 202° |
| 2026-04-27 06:19 | 30.54270 | 103.94408 | 1648 ft | 28 kts | 201° |
| 2026-04-27 06:19 | 30.54091 | 103.94325 | 1648 ft | 28 kts | 202° |
| 2026-04-27 06:20 | 30.53908 | 103.94240 | 1648 ft | 28 kts | 201° |
| 2026-04-27 06:20 | 30.53724 | 103.94156 | 1648 ft | 28 kts | 202° |
| 2026-04-27 06:20 | 30.53543 | 103.94072 | 1649 ft | 28 kts | 201° |
| 2026-04-27 06:20 | 30.53366 | 103.93991 | 1649 ft | 27 kts | 201° |
| 2026-04-27 06:21 | 30.53190 | 103.93910 | 1649 ft | 27 kts | 201° |
| 2026-04-27 06:21 | 30.53016 | 103.93829 | 1649 ft | 27 kts | 201° |
| 2026-04-27 06:21 | 30.52833 | 103.93744 | 1649 ft | 29 kts | 202° |
| 2026-04-27 06:21 | 30.52653 | 103.93658 | 1649 ft | 28 kts | 201° |
| 2026-04-27 06:22 | 30.52477 | 103.93578 | 1649 ft | 27 kts | 201° |
| 2026-04-27 06:22 | 30.52309 | 103.93501 | 1650 ft | 25 kts | 201° |
| 2026-04-27 06:22 | 30.52162 | 103.93433 | 1650 ft | 19 kts | 202° |
| 2026-04-27 06:22 | 30.52069 | 103.93405 | 1650 ft | 11 kts | 162° |
| 2026-04-27 06:23 | 30.52026 | 103.93479 | 1652 ft | 11 kts | 111° |
| 2026-04-27 06:23 | 30.52000 | 103.93557 | 1662 ft | 8 kts | 112° |
| 2026-04-27 06:23 | 30.51982 | 103.93608 | 1667 ft | 7 kts | 112° |
| 2026-04-27 06:23 | 30.51967 | 103.93648 | 1676 ft | 3 kts | 111° |
| 2026-04-27 06:24 | 30.51972 | 103.93683 | 1674 ft | 6 kts | 50° |
| 2026-04-27 06:24 | 30.51988 | 103.93692 | 1667 ft | 0 kts | 22° |
| 2026-04-27 06:24 | 30.52029 | 103.93711 | 1667 ft | 35 kts | 22° |
| 2026-04-27 06:24 | 30.52543 | 103.93950 | 1669 ft | 123 kts | 21° |
| 2026-04-27 06:25 | 30.53559 | 103.94425 | 1945 ft | 177 kts | 22° |
| 2026-04-27 06:25 | 30.54739 | 103.94988 | 2901 ft | 188 kts | 22° |
| 2026-04-27 06:25 | 30.55975 | 103.95626 | 3808 ft | 201 kts | 31° |
| 2026-04-27 06:25 | 30.56892 | 103.96883 | 4538 ft | 220 kts | 66° |
| 2026-04-27 06:26 | 30.57057 | 103.98737 | 5221 ft | 251 kts | 100° |
| 2026-04-27 06:26 | 30.56583 | 104.00596 | 5994 ft | 272 kts | 108° |
| 2026-04-27 06:26 | 30.55990 | 104.02689 | 6813 ft | 274 kts | 108° |
| 2026-04-27 06:26 | 30.55408 | 104.04812 | 7612 ft | 278 kts | 107° |
| 2026-04-27 06:27 | 30.54829 | 104.06965 | 8375 ft | 285 kts | 107° |
| 2026-04-27 06:27 | 30.54228 | 104.09169 | 8997 ft | 285 kts | 108° |
| 2026-04-27 06:27 | 30.53621 | 104.11363 | 9624 ft | 287 kts | 108° |
| 2026-04-27 06:27 | 30.53000 | 104.13588 | 10291 ft | 296 kts | 108° |
| 2026-04-27 06:28 | 30.52329 | 104.15938 | 11029 ft | 317 kts | 110° |
| 2026-04-27 06:28 | 30.51139 | 104.18149 | 11843 ft | 334 kts | 135° |
| 2026-04-27 06:28 | 30.49172 | 104.19687 | 12584 ft | 352 kts | 158° |
| 2026-04-27 06:28 | 30.46750 | 104.20266 | 13423 ft | 363 kts | 179° |
| 2026-04-27 06:29 | 30.44240 | 104.19775 | 14328 ft | 372 kts | 199° |
| 2026-04-27 06:29 | 30.41900 | 104.18393 | 15093 ft | 383 kts | 211° |
| 2026-04-27 06:29 | 30.39619 | 104.16738 | 15896 ft | 391 kts | 213° |
| 2026-04-27 06:29 | 30.37326 | 104.14987 | 16735 ft | 397 kts | 213° |
| 2026-04-27 06:30 | 30.35004 | 104.13221 | 17580 ft | 401 kts | 213° |
| 2026-04-27 06:30 | 30.32643 | 104.11464 | 18444 ft | 404 kts | 210° |
| 2026-04-27 06:30 | 30.30046 | 104.10239 | 19322 ft | 405 kts | 194° |
| 2026-04-27 06:30 | 30.27247 | 104.09912 | 20256 ft | 405 kts | 180° |
| 2026-04-27 06:31 | 30.24451 | 104.09931 | 20940 ft | 410 kts | 180° |
| 2026-04-27 06:31 | 30.21550 | 104.09841 | 21661 ft | 413 kts | 184° |
| 2026-04-27 06:31 | 30.18718 | 104.09556 | 22383 ft | 415 kts | 185° |
| 2026-04-27 06:31 | 30.15837 | 104.09245 | 23131 ft | 416 kts | 185° |
| 2026-04-27 06:32 | 30.12949 | 104.08936 | 23895 ft | 416 kts | 185° |
| 2026-04-27 06:32 | 30.10073 | 104.08632 | 24670 ft | 415 kts | 185° |
| 2026-04-27 06:32 | 30.07203 | 104.08325 | 25460 ft | 413 kts | 185° |
| 2026-04-27 06:32 | 30.04350 | 104.08017 | 26261 ft | 410 kts | 185° |
| 2026-04-27 06:33 | 30.01519 | 104.07709 | 27072 ft | 407 kts | 185° |
| 2026-04-27 06:33 | 29.98716 | 104.07403 | 27892 ft | 402 kts | 185° |
| 2026-04-27 06:33 | 29.95949 | 104.07099 | 28717 ft | 397 kts | 185° |
| 2026-04-27 06:33 | 29.93210 | 104.06794 | 29483 ft | 393 kts | 186° |
| 2026-04-27 06:34 | 29.90501 | 104.06487 | 30201 ft | 390 kts | 186° |
| 2026-04-27 06:34 | 29.87772 | 104.06176 | 30525 ft | 399 kts | 186° |
| 2026-04-27 06:34 | 29.84956 | 104.05853 | 30535 ft | 415 kts | 186° |
| 2026-04-27 06:34 | 29.82036 | 104.05512 | 30560 ft | 429 kts | 186° |
| 2026-04-27 06:35 | 29.79020 | 104.05155 | 30580 ft | 443 kts | 186° |
| 2026-04-27 06:35 | 29.75913 | 104.04783 | 30610 ft | 455 kts | 186° |
| 2026-04-27 06:35 | 29.69557 | 104.04011 | 30588 ft | 455 kts | 186° |
| 2026-04-27 06:36 | 29.63224 | 104.03221 | 30567 ft | 461 kts | 186° |
| 2026-04-27 06:36 | 29.56836 | 104.02406 | 30563 ft | 461 kts | 186° |
| 2026-04-27 06:37 | 29.50511 | 104.01585 | 30547 ft | 461 kts | 186° |
| 2026-04-27 06:37 | 29.44135 | 104.00735 | 30536 ft | 462 kts | 187° |
| 2026-04-27 06:38 | 29.37822 | 103.99456 | 30510 ft | 462 kts | 200° |
| 2026-04-27 06:38 | 29.34986 | 103.97760 | 30514 ft | 461 kts | 216° |
| 2026-04-27 06:38 | 29.32626 | 103.95282 | 30521 ft | 461 kts | 228° |
| 2026-04-27 06:39 | 29.28430 | 103.89702 | 30440 ft | 463 kts | 229° |
| 2026-04-27 06:39 | 29.24221 | 103.84153 | 30339 ft | 461 kts | 229° |
| 2026-04-27 06:40 | 29.20021 | 103.78571 | 30248 ft | 464 kts | 229° |
| 2026-04-27 06:40 | 29.15826 | 103.72971 | 30167 ft | 463 kts | 229° |
| 2026-04-27 06:41 | 29.11646 | 103.67365 | 30077 ft | 464 kts | 230° |
| 2026-04-27 06:41 | 29.07473 | 103.61738 | 30001 ft | 463 kts | 230° |
| 2026-04-27 06:42 | 29.03288 | 103.56067 | 29912 ft | 471 kts | 230° |
| 2026-04-27 06:42 | 28.99095 | 103.50358 | 29838 ft | 464 kts | 230° |
| 2026-04-27 06:43 | 28.94939 | 103.44672 | 29759 ft | 470 kts | 230° |
| 2026-04-27 06:43 | 28.90772 | 103.38942 | 29678 ft | 469 kts | 230° |
| 2026-04-27 06:44 | 28.86634 | 103.33226 | 29609 ft | 469 kts | 230° |
| 2026-04-27 06:44 | 28.82491 | 103.27471 | 29527 ft | 471 kts | 231° |
| 2026-04-27 06:45 | 28.78299 | 103.21622 | 29457 ft | 477 kts | 231° |
| 2026-04-27 06:45 | 28.74145 | 103.15797 | 29393 ft | 472 kts | 231° |
| 2026-04-27 06:46 | 28.70002 | 103.09956 | 29330 ft | 476 kts | 231° |
| 2026-04-27 06:46 | 28.65767 | 103.04135 | 29258 ft | 480 kts | 226° |
| 2026-04-27 06:47 | 28.60657 | 102.99227 | 29220 ft | 481 kts | 218° |
| 2026-04-27 06:47 | 28.55386 | 102.94521 | 29197 ft | 479 kts | 218° |
| 2026-04-27 06:48 | 28.50186 | 102.89857 | 29166 ft | 478 kts | 218° |
| 2026-04-27 06:48 | 28.44916 | 102.85124 | 29148 ft | 484 kts | 218° |
| 2026-04-27 06:49 | 28.39701 | 102.80409 | 29114 ft | 478 kts | 219° |
| 2026-04-27 06:49 | 28.34484 | 102.75675 | 29090 ft | 478 kts | 219° |
| 2026-04-27 06:50 | 28.29300 | 102.70946 | 29036 ft | 480 kts | 219° |
| 2026-04-27 06:50 | 28.26717 | 102.68581 | 28760 ft | 484 kts | 219° |
| 2026-04-27 06:50 | 28.24105 | 102.66183 | 28466 ft | 482 kts | 219° |
| 2026-04-27 06:51 | 28.21508 | 102.63794 | 28181 ft | 481 kts | 219° |
| 2026-04-27 06:51 | 28.18920 | 102.61405 | 27903 ft | 478 kts | 219° |
| 2026-04-27 06:51 | 28.16339 | 102.59015 | 27621 ft | 481 kts | 219° |
| 2026-04-27 06:51 | 28.13679 | 102.56687 | 27335 ft | 485 kts | 213° |
| 2026-04-27 06:52 | 28.10694 | 102.54954 | 27057 ft | 481 kts | 201° |
| 2026-04-27 06:52 | 28.07466 | 102.53983 | 26797 ft | 481 kts | 189° |
| 2026-04-27 06:52 | 28.04136 | 102.53450 | 26524 ft | 485 kts | 188° |
| 2026-04-27 06:52 | 28.00792 | 102.52916 | 26248 ft | 485 kts | 188° |
| 2026-04-27 06:53 | 27.97443 | 102.52360 | 25971 ft | 486 kts | 188° |
| 2026-04-27 06:53 | 27.94105 | 102.51795 | 25689 ft | 483 kts | 188° |
| 2026-04-27 06:53 | 27.90785 | 102.51233 | 25407 ft | 482 kts | 188° |
| 2026-04-27 06:53 | 27.87473 | 102.50667 | 25130 ft | 480 kts | 188° |
| 2026-04-27 06:54 | 27.84184 | 102.50097 | 24810 ft | 477 kts | 189° |
| 2026-04-27 06:54 | 27.80918 | 102.49525 | 24501 ft | 472 kts | 189° |
| 2026-04-27 06:54 | 27.77680 | 102.48994 | 24186 ft | 470 kts | 187° |
| 2026-04-27 06:54 | 27.74467 | 102.48693 | 23883 ft | 470 kts | 183° |
| 2026-04-27 06:55 | 27.71209 | 102.48542 | 23585 ft | 467 kts | 182° |
| 2026-04-27 06:55 | 27.67976 | 102.48396 | 23290 ft | 463 kts | 182° |
| 2026-04-27 06:55 | 27.64759 | 102.48239 | 22992 ft | 462 kts | 182° |
| 2026-04-27 06:55 | 27.61563 | 102.48071 | 22705 ft | 457 kts | 182° |
| 2026-04-27 06:56 | 27.58404 | 102.47903 | 22412 ft | 453 kts | 183° |
| 2026-04-27 06:56 | 27.55265 | 102.47732 | 22120 ft | 450 kts | 183° |
| 2026-04-27 06:56 | 27.52146 | 102.47555 | 21840 ft | 449 kts | 183° |
| 2026-04-27 06:56 | 27.49036 | 102.47371 | 21564 ft | 445 kts | 183° |
| 2026-04-27 06:57 | 27.45963 | 102.47184 | 21284 ft | 441 kts | 183° |
| 2026-04-27 06:57 | 27.43884 | 102.47055 | 21093 ft | 444 kts | 183° |
| 2026-04-27 06:57 | 27.40788 | 102.46858 | 20816 ft | 446 kts | 183° |
| 2026-04-27 06:57 | 27.37736 | 102.46658 | 20541 ft | 445 kts | 183° |
| 2026-04-27 06:58 | 27.34640 | 102.46449 | 20213 ft | 447 kts | 184° |
| 2026-04-27 06:58 | 27.28482 | 102.46013 | 19569 ft | 439 kts | 184° |
| 2026-04-27 06:58 | 27.25444 | 102.45789 | 19249 ft | 437 kts | 184° |
| 2026-04-27 06:59 | 27.22446 | 102.45233 | 18920 ft | 438 kts | 198° |
| 2026-04-27 06:59 | 27.19751 | 102.43706 | 18610 ft | 432 kts | 216° |
| 2026-04-27 06:59 | 27.17613 | 102.41342 | 18317 ft | 434 kts | 233° |
| 2026-04-27 06:59 | 27.16217 | 102.38376 | 18049 ft | 426 kts | 251° |
| 2026-04-27 07:00 | 27.15695 | 102.35146 | 17794 ft | 421 kts | 269° |
| 2026-04-27 07:00 | 27.16056 | 102.31906 | 17558 ft | 419 kts | 286° |
| 2026-04-27 07:00 | 27.17251 | 102.28948 | 17337 ft | 416 kts | 303° |
| 2026-04-27 07:00 | 27.19167 | 102.26526 | 17126 ft | 415 kts | 320° |
| 2026-04-27 07:01 | 27.21625 | 102.24832 | 16828 ft | 418 kts | 337° |
| 2026-04-27 07:01 | 27.24418 | 102.23979 | 16544 ft | 415 kts | 351° |
| 2026-04-27 07:01 | 27.27275 | 102.23488 | 16224 ft | 415 kts | 351° |
| 2026-04-27 07:01 | 27.30106 | 102.22991 | 15864 ft | 409 kts | 351° |
| 2026-04-27 07:02 | 27.32916 | 102.22474 | 15509 ft | 408 kts | 351° |
| 2026-04-27 07:02 | 27.35707 | 102.21960 | 15160 ft | 404 kts | 351° |
| 2026-04-27 07:02 | 27.38478 | 102.21462 | 14814 ft | 401 kts | 351° |
| 2026-04-27 07:02 | 27.41189 | 102.21015 | 14476 ft | 398 kts | 353° |
| 2026-04-27 07:03 | 27.43960 | 102.20766 | 14137 ft | 400 kts | 358° |
| 2026-04-27 07:03 | 27.46727 | 102.20666 | 13798 ft | 396 kts | 358° |
| 2026-04-27 07:03 | 27.49512 | 102.20584 | 13469 ft | 394 kts | 358° |
| 2026-04-27 07:03 | 27.52250 | 102.20499 | 13142 ft | 393 kts | 358° |
| 2026-04-27 07:04 | 27.54972 | 102.20411 | 12803 ft | 391 kts | 358° |
| 2026-04-27 07:04 | 27.57648 | 102.20324 | 12419 ft | 388 kts | 358° |
| 2026-04-27 07:04 | 27.60334 | 102.20232 | 12029 ft | 386 kts | 358° |
| 2026-04-27 07:04 | 27.63015 | 102.20127 | 11647 ft | 385 kts | 358° |
| 2026-04-27 07:05 | 27.65599 | 102.20020 | 11264 ft | 358 kts | 358° |
| 2026-04-27 07:05 | 27.68003 | 102.19911 | 10893 ft | 335 kts | 358° |
| 2026-04-27 07:05 | 27.70259 | 102.19792 | 10531 ft | 315 kts | 357° |
| 2026-04-27 07:05 | 27.72280 | 102.19661 | 10242 ft | 258 kts | 356° |
| 2026-04-27 07:06 | 27.73905 | 102.19536 | 9998 ft | 215 kts | 356° |
| 2026-04-27 07:06 | 27.75315 | 102.19428 | 9763 ft | 193 kts | 356° |
| 2026-04-27 07:06 | 27.76608 | 102.19350 | 9476 ft | 180 kts | 358° |
| 2026-04-27 07:06 | 27.77833 | 102.19299 | 9187 ft | 172 kts | 358° |
| 2026-04-27 07:07 | 27.79014 | 102.19255 | 8892 ft | 167 kts | 358° |
| 2026-04-27 07:07 | 27.80166 | 102.19210 | 8607 ft | 164 kts | 358° |
| 2026-04-27 07:07 | 27.81292 | 102.19163 | 8317 ft | 160 kts | 358° |
| 2026-04-27 07:07 | 27.82393 | 102.19111 | 8026 ft | 157 kts | 358° |
| 2026-04-27 07:08 | 27.83476 | 102.19060 | 7747 ft | 156 kts | 358° |
| 2026-04-27 07:08 | 27.84573 | 102.19010 | 7484 ft | 159 kts | 358° |
| 2026-04-27 07:08 | 27.85677 | 102.18963 | 7228 ft | 158 kts | 358° |
| 2026-04-27 07:08 | 27.86339 | 102.18936 | 7073 ft | 158 kts | 358° |
| 2026-04-27 07:09 | 27.86343 | 102.18936 | 7072 ft | 157 kts | 358° |
| 2026-04-27 07:10 | 27.87426 | 102.18894 | 6843 ft | 154 kts | 358° |
| 2026-04-27 07:10 | 27.88496 | 102.18853 | 6625 ft | 155 kts | 358° |
| 2026-04-27 07:10 | 27.89590 | 102.18809 | 6425 ft | 159 kts | 358° |
| 2026-04-27 07:10 | 27.90700 | 102.18762 | 6232 ft | 160 kts | 358° |
| 2026-04-27 07:11 | 27.91794 | 102.18714 | 6036 ft | 153 kts | 358° |
| 2026-04-27 07:11 | 27.92850 | 102.18668 | 5840 ft | 152 kts | 358° |
| 2026-04-27 07:11 | 27.93911 | 102.18625 | 5658 ft | 153 kts | 358° |
| 2026-04-27 07:11 | 27.94965 | 102.18583 | 5485 ft | 152 kts | 358° |
| 2026-04-27 07:12 | 27.96003 | 102.18542 | 5315 ft | 147 kts | 358° |
| 2026-04-27 07:12 | 27.97031 | 102.18503 | 5179 ft | 148 kts | 358° |
| 2026-04-27 07:12 | 27.98023 | 102.18464 | 5085 ft | 132 kts | 358° |
| 2026-04-27 07:12 | 27.98707 | 102.18439 | 5085 ft | 61 kts | 358° |
| 2026-04-27 07:13 | 27.98994 | 102.18428 | 5083 ft | 28 kts | 358° |
| 2026-04-27 07:13 | 27.99147 | 102.18429 | 5085 ft | 14 kts | 19° |
| 2026-04-27 07:13 | 27.99166 | 102.18485 | 5085 ft | 6 kts | 89° |
| 2026-04-27 07:13 | 27.99160 | 102.18546 | 5084 ft | 9 kts | 121° |
| 2026-04-27 07:14 | 27.99106 | 102.18560 | 5083 ft | 9 kts | 178° |
| 2026-04-27 07:14 | 27.99037 | 102.18562 | 5083 ft | 11 kts | 178° |
| 2026-04-27 07:14 | 27.98957 | 102.18565 | 5083 ft | 12 kts | 178° |
| 2026-04-27 07:14 | 27.98867 | 102.18567 | 5083 ft | 14 kts | 178° |
| 2026-04-27 07:15 | 27.98768 | 102.18570 | 5083 ft | 15 kts | 178° |
| 2026-04-27 07:15 | 27.98662 | 102.18575 | 5082 ft | 16 kts | 178° |
| 2026-04-27 07:15 | 27.98547 | 102.18580 | 5082 ft | 17 kts | 178° |
| 2026-04-27 07:15 | 27.98435 | 102.18584 | 5082 ft | 16 kts | 178° |
| 2026-04-27 07:16 | 27.98198 | 102.18593 | 5083 ft | 18 kts | 177° |
| 2026-04-27 07:16 | 27.98090 | 102.18598 | 5083 ft | 16 kts | 178° |
| 2026-04-27 07:16 | 27.98032 | 102.18631 | 5083 ft | 8 kts | 89° |
| 2026-04-27 07:17 | 27.98035 | 102.18706 | 5083 ft | 10 kts | 87° |
| 2026-04-27 07:17 | 27.98037 | 102.18791 | 5082 ft | 9 kts | 94° |
| 2026-04-27 07:17 | 27.97999 | 102.18825 | 5082 ft | 6 kts | 148° |
| 2026-04-27 07:17 | 27.97990 | 102.18864 | 5082 ft | 3 kts | 87° |
| 2026-04-27 07:18 | 27.97990 | 102.18875 | 5082 ft | 0 kts | 87° |
| 2026-04-27 07:18 | 27.97991 | 102.18886 | 5082 ft | 0 kts | 86° |